sensor_id;sensor_type;location;lat;lon;timestamp;temperature;humidity
11144;DHT22;5626;44.730;10.276;2022-08-01T00:01:35;25.20;67.70
11144;DHT22;5626;44.730;10.276;2022-08-01T00:04:06;25.20;67.70
11144;DHT22;5626;44.730;10.276;2022-08-01T00:06:35;25.20;67.90
11144;DHT22;5626;44.730;10.276;2022-08-01T00:09:05;25.20;67.80
11144;DHT22;5626;44.730;10.276;2022-08-01T00:11:34;25.10;68.10
11144;DHT22;5626;44.730;10.276;2022-08-01T00:14:04;25.10;68.50
11144;DHT22;5626;44.730;10.276;2022-08-01T00:16:34;25.00;68.50
11144;DHT22;5626;44.730;10.276;2022-08-01T00:19:06;25.00;68.90
11144;DHT22;5626;44.730;10.276;2022-08-01T00:21:35;25.00;68.90
11144;DHT22;5626;44.730;10.276;2022-08-01T00:24:06;25.00;69.20
11144;DHT22;5626;44.730;10.276;2022-08-01T00:26:35;24.90;69.40
11144;DHT22;5626;44.730;10.276;2022-08-01T00:29:05;24.90;69.70
11144;DHT22;5626;44.730;10.276;2022-08-01T00:31:35;24.80;70.10
11144;DHT22;5626;44.730;10.276;2022-08-01T00:34:06;24.80;70.40
11144;DHT22;5626;44.730;10.276;2022-08-01T00:36:36;24.80;70.40
11144;DHT22;5626;44.730;10.276;2022-08-01T00:39:06;24.70;70.40
11144;DHT22;5626;44.730;10.276;2022-08-01T00:41:35;24.70;70.70
11144;DHT22;5626;44.730;10.276;2022-08-01T00:44:05;24.80;70.30
11144;DHT22;5626;44.730;10.276;2022-08-01T00:46:35;24.80;70.20
11144;DHT22;5626;44.730;10.276;2022-08-01T00:49:06;24.80;70.00
11144;DHT22;5626;44.730;10.276;2022-08-01T00:51:36;24.80;69.80
11144;DHT22;5626;44.730;10.276;2022-08-01T00:54:06;24.80;69.90
11144;DHT22;5626;44.730;10.276;2022-08-01T00:56:36;24.80;69.70
11144;DHT22;5626;44.730;10.276;2022-08-01T00:59:06;24.80;69.90
11144;DHT22;5626;44.730;10.276;2022-08-01T01:01:36;24.80;70.20
11144;DHT22;5626;44.730;10.276;2022-08-01T01:04:08;24.80;70.00
11144;DHT22;5626;44.730;10.276;2022-08-01T01:06:44;24.80;70.10
11144;DHT22;5626;44.730;10.276;2022-08-01T01:09:29;24.80;70.00
11144;DHT22;5626;44.730;10.276;2022-08-01T01:12:12;24.80;70.00
11144;DHT22;5626;44.730;10.276;2022-08-01T01:14:50;24.80;69.90
11144;DHT22;5626;44.730;10.276;2022-08-01T01:17:26;24.80;69.90
11144;DHT22;5626;44.730;10.276;2022-08-01T01:19:59;24.80;70.10
11144;DHT22;5626;44.730;10.276;2022-08-01T01:22:47;24.80;69.90
11144;DHT22;5626;44.730;10.276;2022-08-01T01:28:16;24.80;70.30
11144;DHT22;5626;44.730;10.276;2022-08-01T01:30:52;24.80;70.20
11144;DHT22;5626;44.730;10.276;2022-08-01T01:33:24;24.80;70.00
11144;DHT22;5626;44.730;10.276;2022-08-01T01:36:01;24.80;69.80
11144;DHT22;5626;44.730;10.276;2022-08-01T01:38:34;24.80;69.70
11144;DHT22;5626;44.730;10.276;2022-08-01T01:41:06;24.70;69.60
11144;DHT22;5626;44.730;10.276;2022-08-01T01:43:37;24.70;69.80
11144;DHT22;5626;44.730;10.276;2022-08-01T01:46:11;24.70;69.60
11144;DHT22;5626;44.730;10.276;2022-08-01T01:48:43;24.70;69.40
11144;DHT22;5626;44.730;10.276;2022-08-01T01:51:15;24.70;69.50
11144;DHT22;5626;44.730;10.276;2022-08-01T01:53:45;24.70;69.50
11144;DHT22;5626;44.730;10.276;2022-08-01T01:56:18;24.70;69.70
11144;DHT22;5626;44.730;10.276;2022-08-01T01:58:50;24.70;69.60
11144;DHT22;5626;44.730;10.276;2022-08-01T02:01:23;24.70;69.70
11144;DHT22;5626;44.730;10.276;2022-08-01T02:03:55;24.60;70.10
11144;DHT22;5626;44.730;10.276;2022-08-01T02:06:27;24.50;70.30
11144;DHT22;5626;44.730;10.276;2022-08-01T02:08:57;24.50;70.40
11144;DHT22;5626;44.730;10.276;2022-08-01T02:11:28;24.40;70.80
11144;DHT22;5626;44.730;10.276;2022-08-01T02:14:00;24.40;70.70
11144;DHT22;5626;44.730;10.276;2022-08-01T02:16:35;24.40;70.70
11144;DHT22;5626;44.730;10.276;2022-08-01T02:19:05;24.40;70.60
11144;DHT22;5626;44.730;10.276;2022-08-01T02:21:39;24.40;70.80
11144;DHT22;5626;44.730;10.276;2022-08-01T02:24:14;24.40;70.80
11144;DHT22;5626;44.730;10.276;2022-08-01T02:26:47;24.40;70.70
11144;DHT22;5626;44.730;10.276;2022-08-01T02:29:22;24.40;70.20
11144;DHT22;5626;44.730;10.276;2022-08-01T02:31:55;24.50;70.10
11144;DHT22;5626;44.730;10.276;2022-08-01T02:34:25;24.50;69.80
11144;DHT22;5626;44.730;10.276;2022-08-01T02:37:00;24.60;69.80
11144;DHT22;5626;44.730;10.276;2022-08-01T02:39:32;24.60;69.70
11144;DHT22;5626;44.730;10.276;2022-08-01T02:42:06;24.60;69.90
11144;DHT22;5626;44.730;10.276;2022-08-01T02:44:38;24.60;71.10
11144;DHT22;5626;44.730;10.276;2022-08-01T02:47:10;24.50;70.90
11144;DHT22;5626;44.730;10.276;2022-08-01T02:49:42;24.40;71.00
11144;DHT22;5626;44.730;10.276;2022-08-01T02:52:15;24.40;71.80
11144;DHT22;5626;44.730;10.276;2022-08-01T02:54:49;24.30;72.10
11144;DHT22;5626;44.730;10.276;2022-08-01T02:57:21;24.20;72.70
11144;DHT22;5626;44.730;10.276;2022-08-01T02:59:54;24.20;72.90
11144;DHT22;5626;44.730;10.276;2022-08-01T03:02:26;24.20;72.90
11144;DHT22;5626;44.730;10.276;2022-08-01T03:04:57;24.20;73.00
11144;DHT22;5626;44.730;10.276;2022-08-01T03:07:28;24.20;73.10
11144;DHT22;5626;44.730;10.276;2022-08-01T03:09:59;24.20;73.30
11144;DHT22;5626;44.730;10.276;2022-08-01T03:12:32;24.20;73.50
11144;DHT22;5626;44.730;10.276;2022-08-01T03:15:03;24.20;73.80
11144;DHT22;5626;44.730;10.276;2022-08-01T03:17:37;24.10;73.60
11144;DHT22;5626;44.730;10.276;2022-08-01T03:20:11;24.10;74.00
11144;DHT22;5626;44.730;10.276;2022-08-01T03:22:42;24.10;74.00
11144;DHT22;5626;44.730;10.276;2022-08-01T03:25:14;24.10;73.60
11144;DHT22;5626;44.730;10.276;2022-08-01T03:27:47;24.10;73.70
11144;DHT22;5626;44.730;10.276;2022-08-01T03:30:20;24.00;73.80
11144;DHT22;5626;44.730;10.276;2022-08-01T03:32:52;24.00;73.90
11144;DHT22;5626;44.730;10.276;2022-08-01T03:35:24;23.90;74.10
11144;DHT22;5626;44.730;10.276;2022-08-01T03:37:56;23.90;74.30
11144;DHT22;5626;44.730;10.276;2022-08-01T03:40:47;23.90;74.90
11144;DHT22;5626;44.730;10.276;2022-08-01T03:43:21;23.80;76.50
11144;DHT22;5626;44.730;10.276;2022-08-01T03:45:52;23.80;77.00
11144;DHT22;5626;44.730;10.276;2022-08-01T03:48:28;23.70;77.00
11144;DHT22;5626;44.730;10.276;2022-08-01T03:50:59;23.60;77.40
11144;DHT22;5626;44.730;10.276;2022-08-01T03:53:32;23.60;77.60
11144;DHT22;5626;44.730;10.276;2022-08-01T03:56:03;23.60;77.90
11144;DHT22;5626;44.730;10.276;2022-08-01T03:58:38;23.60;78.20
11144;DHT22;5626;44.730;10.276;2022-08-01T04:01:08;23.60;78.10
11144;DHT22;5626;44.730;10.276;2022-08-01T04:03:40;23.60;77.80
11144;DHT22;5626;44.730;10.276;2022-08-01T04:06:10;23.70;77.80
11144;DHT22;5626;44.730;10.276;2022-08-01T04:08:41;23.70;78.20
11144;DHT22;5626;44.730;10.276;2022-08-01T04:11:24;23.70;78.50
11144;DHT22;5626;44.730;10.276;2022-08-01T04:13:55;23.70;78.30
11144;DHT22;5626;44.730;10.276;2022-08-01T04:16:25;23.70;78.10
11144;DHT22;5626;44.730;10.276;2022-08-01T04:18:56;23.70;77.70
11144;DHT22;5626;44.730;10.276;2022-08-01T04:21:27;23.70;77.90
11144;DHT22;5626;44.730;10.276;2022-08-01T04:24:01;23.70;78.10
11144;DHT22;5626;44.730;10.276;2022-08-01T04:26:35;23.70;78.20
11144;DHT22;5626;44.730;10.276;2022-08-01T04:29:07;23.70;78.70
11144;DHT22;5626;44.730;10.276;2022-08-01T04:31:39;23.70;78.70
11144;DHT22;5626;44.730;10.276;2022-08-01T04:34:14;23.70;77.90
11144;DHT22;5626;44.730;10.276;2022-08-01T04:36:46;23.70;78.00
11144;DHT22;5626;44.730;10.276;2022-08-01T04:39:18;23.80;77.90
11144;DHT22;5626;44.730;10.276;2022-08-01T04:41:48;23.80;78.00
11144;DHT22;5626;44.730;10.276;2022-08-01T04:44:19;23.90;78.00
11144;DHT22;5626;44.730;10.276;2022-08-01T04:46:50;23.90;77.90
11144;DHT22;5626;44.730;10.276;2022-08-01T04:49:24;24.00;77.90
11144;DHT22;5626;44.730;10.276;2022-08-01T04:51:55;24.10;77.90
11144;DHT22;5626;44.730;10.276;2022-08-01T04:54:25;24.10;78.10
11144;DHT22;5626;44.730;10.276;2022-08-01T04:56:56;24.20;78.90
11144;DHT22;5626;44.730;10.276;2022-08-01T04:59:28;24.20;79.10
11144;DHT22;5626;44.730;10.276;2022-08-01T05:02:10;24.30;79.00
11144;DHT22;5626;44.730;10.276;2022-08-01T05:04:42;24.40;78.70
11144;DHT22;5626;44.730;10.276;2022-08-01T05:07:13;24.40;78.40
11144;DHT22;5626;44.730;10.276;2022-08-01T05:09:43;24.50;78.40
11144;DHT22;5626;44.730;10.276;2022-08-01T05:12:14;24.50;78.20
11144;DHT22;5626;44.730;10.276;2022-08-01T05:14:44;24.50;78.20
11144;DHT22;5626;44.730;10.276;2022-08-01T05:17:14;24.60;78.20
11144;DHT22;5626;44.730;10.276;2022-08-01T05:19:46;24.70;78.20
11144;DHT22;5626;44.730;10.276;2022-08-01T05:22:15;24.80;78.70
11144;DHT22;5626;44.730;10.276;2022-08-01T05:24:45;25.00;79.00
11144;DHT22;5626;44.730;10.276;2022-08-01T05:27:15;25.10;79.60
11144;DHT22;5626;44.730;10.276;2022-08-01T05:29:45;25.30;80.00
11144;DHT22;5626;44.730;10.276;2022-08-01T05:32:15;25.40;79.90
11144;DHT22;5626;44.730;10.276;2022-08-01T05:34:46;25.50;79.20
11144;DHT22;5626;44.730;10.276;2022-08-01T05:37:15;25.70;78.90
11144;DHT22;5626;44.730;10.276;2022-08-01T05:39:45;25.70;78.30
11144;DHT22;5626;44.730;10.276;2022-08-01T05:42:15;25.90;78.00
11144;DHT22;5626;44.730;10.276;2022-08-01T05:44:44;26.00;77.20
11144;DHT22;5626;44.730;10.276;2022-08-01T05:47:15;26.10;76.70
11144;DHT22;5626;44.730;10.276;2022-08-01T05:49:47;26.20;75.90
11144;DHT22;5626;44.730;10.276;2022-08-01T05:52:16;26.40;75.60
11144;DHT22;5626;44.730;10.276;2022-08-01T05:54:46;26.50;75.30
11144;DHT22;5626;44.730;10.276;2022-08-01T05:57:16;26.70;75.50
11144;DHT22;5626;44.730;10.276;2022-08-01T05:59:45;26.70;75.40
11144;DHT22;5626;44.730;10.276;2022-08-01T06:02:15;26.80;75.10
11144;DHT22;5626;44.730;10.276;2022-08-01T06:04:46;26.90;74.70
11144;DHT22;5626;44.730;10.276;2022-08-01T06:07:16;27.00;73.80
11144;DHT22;5626;44.730;10.276;2022-08-01T06:09:46;27.00;73.40
11144;DHT22;5626;44.730;10.276;2022-08-01T06:12:15;27.00;73.20
11144;DHT22;5626;44.730;10.276;2022-08-01T06:14:45;27.10;73.20
11144;DHT22;5626;44.730;10.276;2022-08-01T06:17:15;27.30;72.30
11144;DHT22;5626;44.730;10.276;2022-08-01T06:19:46;27.40;72.20
11144;DHT22;5626;44.730;10.276;2022-08-01T06:22:16;27.40;72.00
11144;DHT22;5626;44.730;10.276;2022-08-01T06:24:46;27.50;72.10
11144;DHT22;5626;44.730;10.276;2022-08-01T06:27:16;27.60;72.00
11144;DHT22;5626;44.730;10.276;2022-08-01T06:29:45;27.70;71.90
11144;DHT22;5626;44.730;10.276;2022-08-01T06:32:15;27.80;72.50
11144;DHT22;5626;44.730;10.276;2022-08-01T06:34:46;27.80;72.10
11144;DHT22;5626;44.730;10.276;2022-08-01T06:37:16;27.90;71.00
11144;DHT22;5626;44.730;10.276;2022-08-01T06:39:46;28.00;70.10
11144;DHT22;5626;44.730;10.276;2022-08-01T06:42:17;28.00;69.70
11144;DHT22;5626;44.730;10.276;2022-08-01T06:44:47;28.10;69.90
11144;DHT22;5626;44.730;10.276;2022-08-01T06:47:17;28.10;69.00
11144;DHT22;5626;44.730;10.276;2022-08-01T06:49:48;28.20;67.30
11144;DHT22;5626;44.730;10.276;2022-08-01T06:52:17;28.30;65.40
11144;DHT22;5626;44.730;10.276;2022-08-01T06:54:47;28.30;64.70
11144;DHT22;5626;44.730;10.276;2022-08-01T06:57:17;28.30;64.70
11144;DHT22;5626;44.730;10.276;2022-08-01T06:59:47;28.40;64.00
11144;DHT22;5626;44.730;10.276;2022-08-01T07:02:16;28.40;63.00
11144;DHT22;5626;44.730;10.276;2022-08-01T07:04:48;28.50;64.00
11144;DHT22;5626;44.730;10.276;2022-08-01T07:07:17;28.50;63.90
11144;DHT22;5626;44.730;10.276;2022-08-01T07:09:47;28.60;63.00
11144;DHT22;5626;44.730;10.276;2022-08-01T07:12:17;28.60;63.60
11144;DHT22;5626;44.730;10.276;2022-08-01T07:14:46;28.70;64.20
11144;DHT22;5626;44.730;10.276;2022-08-01T07:17:16;28.70;63.80
11144;DHT22;5626;44.730;10.276;2022-08-01T07:19:50;28.80;62.60
11144;DHT22;5626;44.730;10.276;2022-08-01T07:22:19;28.80;62.50
11144;DHT22;5626;44.730;10.276;2022-08-01T07:24:49;28.90;62.50
11144;DHT22;5626;44.730;10.276;2022-08-01T07:27:18;28.90;63.30
11144;DHT22;5626;44.730;10.276;2022-08-01T07:29:48;29.00;62.20
11144;DHT22;5626;44.730;10.276;2022-08-01T07:32:18;29.10;62.60
11144;DHT22;5626;44.730;10.276;2022-08-01T07:34:49;29.20;62.50
11144;DHT22;5626;44.730;10.276;2022-08-01T07:37:19;29.30;62.20
11144;DHT22;5626;44.730;10.276;2022-08-01T07:39:48;29.40;61.80
11144;DHT22;5626;44.730;10.276;2022-08-01T07:42:18;29.40;61.90
11144;DHT22;5626;44.730;10.276;2022-08-01T07:44:48;29.50;60.90
11144;DHT22;5626;44.730;10.276;2022-08-01T07:47:23;29.60;61.70
11144;DHT22;5626;44.730;10.276;2022-08-01T07:49:59;29.70;61.60
11144;DHT22;5626;44.730;10.276;2022-08-01T07:52:29;29.80;61.90
11144;DHT22;5626;44.730;10.276;2022-08-01T07:54:59;29.90;61.70
11144;DHT22;5626;44.730;10.276;2022-08-01T07:57:29;30.00;61.80
11144;DHT22;5626;44.730;10.276;2022-08-01T08:00:00;30.20;61.60
11144;DHT22;5626;44.730;10.276;2022-08-01T08:02:30;30.30;61.10
11144;DHT22;5626;44.730;10.276;2022-08-01T08:05:02;30.50;60.90
11144;DHT22;5626;44.730;10.276;2022-08-01T08:07:34;30.60;60.30
11144;DHT22;5626;44.730;10.276;2022-08-01T08:10:04;30.60;60.30
11144;DHT22;5626;44.730;10.276;2022-08-01T08:12:34;30.70;60.40
11144;DHT22;5626;44.730;10.276;2022-08-01T08:15:05;30.80;59.70
11144;DHT22;5626;44.730;10.276;2022-08-01T08:17:35;30.90;59.30
11144;DHT22;5626;44.730;10.276;2022-08-01T08:20:07;31.10;59.60
11144;DHT22;5626;44.730;10.276;2022-08-01T08:22:37;31.10;58.80
11144;DHT22;5626;44.730;10.276;2022-08-01T08:25:09;31.20;58.80
11144;DHT22;5626;44.730;10.276;2022-08-01T08:27:39;31.40;58.90
11144;DHT22;5626;44.730;10.276;2022-08-01T08:30:09;31.40;59.00
11144;DHT22;5626;44.730;10.276;2022-08-01T08:32:40;31.50;57.80
11144;DHT22;5626;44.730;10.276;2022-08-01T08:35:11;31.60;57.70
11144;DHT22;5626;44.730;10.276;2022-08-01T08:37:43;31.60;57.50
11144;DHT22;5626;44.730;10.276;2022-08-01T08:40:12;31.70;57.90
11144;DHT22;5626;44.730;10.276;2022-08-01T08:42:42;31.80;57.60
11144;DHT22;5626;44.730;10.276;2022-08-01T08:45:12;31.90;57.70
11144;DHT22;5626;44.730;10.276;2022-08-01T08:47:42;32.00;57.20
11144;DHT22;5626;44.730;10.276;2022-08-01T08:50:16;32.00;56.80
11144;DHT22;5626;44.730;10.276;2022-08-01T08:52:46;32.10;56.80
11144;DHT22;5626;44.730;10.276;2022-08-01T08:55:16;32.10;56.90
11144;DHT22;5626;44.730;10.276;2022-08-01T08:57:47;32.20;57.20
11144;DHT22;5626;44.730;10.276;2022-08-01T09:00:17;32.30;56.60
11144;DHT22;5626;44.730;10.276;2022-08-01T09:02:47;32.40;55.60
11144;DHT22;5626;44.730;10.276;2022-08-01T09:05:19;32.50;55.50
11144;DHT22;5626;44.730;10.276;2022-08-01T09:07:53;32.50;56.30
11144;DHT22;5626;44.730;10.276;2022-08-01T09:10:23;32.60;56.20
11144;DHT22;5626;44.730;10.276;2022-08-01T09:13:07;32.70;55.70
11144;DHT22;5626;44.730;10.276;2022-08-01T09:15:43;32.80;55.60
11144;DHT22;5626;44.730;10.276;2022-08-01T09:18:27;32.90;56.00
11144;DHT22;5626;44.730;10.276;2022-08-01T09:21:23;33.00;55.10
11144;DHT22;5626;44.730;10.276;2022-08-01T09:23:57;33.10;55.50
11144;DHT22;5626;44.730;10.276;2022-08-01T09:26:32;33.10;55.00
11144;DHT22;5626;44.730;10.276;2022-08-01T09:29:05;33.10;55.50
11144;DHT22;5626;44.730;10.276;2022-08-01T09:31:41;33.20;54.30
11144;DHT22;5626;44.730;10.276;2022-08-01T09:34:11;33.30;54.60
11144;DHT22;5626;44.730;10.276;2022-08-01T09:36:47;33.30;54.50
11144;DHT22;5626;44.730;10.276;2022-08-01T09:39:28;33.40;54.40
11144;DHT22;5626;44.730;10.276;2022-08-01T09:42:01;33.50;54.10
11144;DHT22;5626;44.730;10.276;2022-08-01T09:44:38;33.50;53.40
11144;DHT22;5626;44.730;10.276;2022-08-01T09:47:08;33.60;53.90
11144;DHT22;5626;44.730;10.276;2022-08-01T09:49:40;33.60;54.10
11144;DHT22;5626;44.730;10.276;2022-08-01T09:52:13;33.70;53.20
11144;DHT22;5626;44.730;10.276;2022-08-01T09:54:52;33.80;52.70
11144;DHT22;5626;44.730;10.276;2022-08-01T09:57:22;33.80;52.00
11144;DHT22;5626;44.730;10.276;2022-08-01T09:59:54;33.80;52.10
11144;DHT22;5626;44.730;10.276;2022-08-01T10:02:31;33.90;51.80
11144;DHT22;5626;44.730;10.276;2022-08-01T10:05:01;33.90;52.60
11144;DHT22;5626;44.730;10.276;2022-08-01T10:07:33;34.10;53.20
11144;DHT22;5626;44.730;10.276;2022-08-01T10:10:10;34.20;51.20
11144;DHT22;5626;44.730;10.276;2022-08-01T10:12:41;34.30;50.40
11144;DHT22;5626;44.730;10.276;2022-08-01T10:15:13;34.30;50.30
11144;DHT22;5626;44.730;10.276;2022-08-01T10:17:46;34.40;50.00
11144;DHT22;5626;44.730;10.276;2022-08-01T10:20:22;34.50;50.00
11144;DHT22;5626;44.730;10.276;2022-08-01T10:22:54;34.60;50.20
11144;DHT22;5626;44.730;10.276;2022-08-01T10:25:26;34.70;50.10
11144;DHT22;5626;44.730;10.276;2022-08-01T10:27:57;34.70;50.50
11144;DHT22;5626;44.730;10.276;2022-08-01T10:30:29;34.80;51.00
11144;DHT22;5626;44.730;10.276;2022-08-01T10:32:59;34.80;50.50
11144;DHT22;5626;44.730;10.276;2022-08-01T10:35:30;34.90;51.70
11144;DHT22;5626;44.730;10.276;2022-08-01T10:38:03;34.90;51.00
11144;DHT22;5626;44.730;10.276;2022-08-01T10:40:34;35.00;50.40
11144;DHT22;5626;44.730;10.276;2022-08-01T10:43:05;35.20;49.80
11144;DHT22;5626;44.730;10.276;2022-08-01T10:45:35;35.20;50.40
11144;DHT22;5626;44.730;10.276;2022-08-01T10:48:09;35.30;50.30
11144;DHT22;5626;44.730;10.276;2022-08-01T10:50:42;35.40;49.30
11144;DHT22;5626;44.730;10.276;2022-08-01T10:53:16;35.40;48.30
11144;DHT22;5626;44.730;10.276;2022-08-01T10:55:49;35.40;48.80
11144;DHT22;5626;44.730;10.276;2022-08-01T10:58:23;35.40;50.20
11144;DHT22;5626;44.730;10.276;2022-08-01T11:01:15;35.40;50.90
11144;DHT22;5626;44.730;10.276;2022-08-01T11:03:56;35.50;49.40
11144;DHT22;5626;44.730;10.276;2022-08-01T11:06:38;35.60;49.30
11144;DHT22;5626;44.730;10.276;2022-08-01T11:09:29;35.70;49.60
11144;DHT22;5626;44.730;10.276;2022-08-01T11:12:02;35.70;48.60
11144;DHT22;5626;44.730;10.276;2022-08-01T11:14:34;35.70;48.50
11144;DHT22;5626;44.730;10.276;2022-08-01T11:17:34;35.70;47.40
11144;DHT22;5626;44.730;10.276;2022-08-01T11:20:07;35.70;49.30
11144;DHT22;5626;44.730;10.276;2022-08-01T11:26:13;35.90;47.90
11144;DHT22;5626;44.730;10.276;2022-08-01T11:28:45;36.00;48.40
11144;DHT22;5626;44.730;10.276;2022-08-01T11:31:32;36.10;49.80
11144;DHT22;5626;44.730;10.276;2022-08-01T11:34:02;36.20;49.90
11144;DHT22;5626;44.730;10.276;2022-08-01T11:36:32;36.20;47.40
11144;DHT22;5626;44.730;10.276;2022-08-01T11:39:22;36.30;47.20
11144;DHT22;5626;44.730;10.276;2022-08-01T11:41:53;36.30;47.50
11144;DHT22;5626;44.730;10.276;2022-08-01T11:44:24;36.40;48.60
11144;DHT22;5626;44.730;10.276;2022-08-01T11:47:00;36.40;48.00
11144;DHT22;5626;44.730;10.276;2022-08-01T11:49:46;36.30;46.90
11144;DHT22;5626;44.730;10.276;2022-08-01T11:52:22;36.30;46.50
11144;DHT22;5626;44.730;10.276;2022-08-01T11:54:54;36.30;47.00
11144;DHT22;5626;44.730;10.276;2022-08-01T11:57:27;36.40;46.70
11144;DHT22;5626;44.730;10.276;2022-08-01T11:59:59;36.50;47.60
11144;DHT22;5626;44.730;10.276;2022-08-01T12:02:39;36.50;47.70
11144;DHT22;5626;44.730;10.276;2022-08-01T12:05:10;36.60;47.90
11144;DHT22;5626;44.730;10.276;2022-08-01T12:07:42;36.70;48.20
11144;DHT22;5626;44.730;10.276;2022-08-01T12:10:13;36.70;48.20
11144;DHT22;5626;44.730;10.276;2022-08-01T12:12:46;36.70;47.60
11144;DHT22;5626;44.730;10.276;2022-08-01T12:15:17;36.70;46.20
11144;DHT22;5626;44.730;10.276;2022-08-01T12:17:49;36.70;46.00
11144;DHT22;5626;44.730;10.276;2022-08-01T12:20:21;36.80;46.10
11144;DHT22;5626;44.730;10.276;2022-08-01T12:22:53;36.90;45.00
11144;DHT22;5626;44.730;10.276;2022-08-01T12:25:23;37.00;46.30
11144;DHT22;5626;44.730;10.276;2022-08-01T12:27:55;37.10;46.40
11144;DHT22;5626;44.730;10.276;2022-08-01T12:30:29;37.10;46.10
11144;DHT22;5626;44.730;10.276;2022-08-01T12:33:04;37.10;45.20
11144;DHT22;5626;44.730;10.276;2022-08-01T12:35:35;37.00;44.00
11144;DHT22;5626;44.730;10.276;2022-08-01T12:38:14;37.00;45.90
11144;DHT22;5626;44.730;10.276;2022-08-01T12:40:45;37.00;46.70
11144;DHT22;5626;44.730;10.276;2022-08-01T12:43:18;37.00;44.20
11144;DHT22;5626;44.730;10.276;2022-08-01T12:45:50;37.00;44.70
11144;DHT22;5626;44.730;10.276;2022-08-01T12:48:20;37.10;45.80
11144;DHT22;5626;44.730;10.276;2022-08-01T12:50:51;37.10;45.40
11144;DHT22;5626;44.730;10.276;2022-08-01T12:53:21;37.10;46.00
11144;DHT22;5626;44.730;10.276;2022-08-01T12:55:53;37.20;46.70
11144;DHT22;5626;44.730;10.276;2022-08-01T12:58:31;37.20;45.50
11144;DHT22;5626;44.730;10.276;2022-08-01T13:01:06;37.30;45.70
11144;DHT22;5626;44.730;10.276;2022-08-01T13:03:37;37.40;45.10
11144;DHT22;5626;44.730;10.276;2022-08-01T13:06:10;37.50;45.80
11144;DHT22;5626;44.730;10.276;2022-08-01T13:08:43;37.50;44.00
11144;DHT22;5626;44.730;10.276;2022-08-01T13:11:14;37.50;43.90
11144;DHT22;5626;44.730;10.276;2022-08-01T13:13:48;37.60;42.80
11144;DHT22;5626;44.730;10.276;2022-08-01T13:16:19;37.60;44.00
11144;DHT22;5626;44.730;10.276;2022-08-01T13:18:51;37.70;43.90
11144;DHT22;5626;44.730;10.276;2022-08-01T13:21:22;37.70;43.40
11144;DHT22;5626;44.730;10.276;2022-08-01T13:24:03;37.80;44.50
11144;DHT22;5626;44.730;10.276;2022-08-01T13:26:39;37.80;44.80
11144;DHT22;5626;44.730;10.276;2022-08-01T13:29:12;37.80;44.00
11144;DHT22;5626;44.730;10.276;2022-08-01T13:31:42;37.80;45.40
11144;DHT22;5626;44.730;10.276;2022-08-01T13:34:12;37.80;43.80
11144;DHT22;5626;44.730;10.276;2022-08-01T13:36:42;37.80;43.00
11144;DHT22;5626;44.730;10.276;2022-08-01T13:39:16;37.90;42.00
11144;DHT22;5626;44.730;10.276;2022-08-01T13:42:03;37.90;42.40
11144;DHT22;5626;44.730;10.276;2022-08-01T13:44:35;38.10;44.30
11144;DHT22;5626;44.730;10.276;2022-08-01T13:47:06;38.10;41.90
11144;DHT22;5626;44.730;10.276;2022-08-01T13:49:35;38.10;42.40
11144;DHT22;5626;44.730;10.276;2022-08-01T13:52:05;38.10;41.50
11144;DHT22;5626;44.730;10.276;2022-08-01T13:54:35;38.10;42.90
11144;DHT22;5626;44.730;10.276;2022-08-01T13:57:05;38.10;42.60
11144;DHT22;5626;44.730;10.276;2022-08-01T13:59:36;38.20;42.80
11144;DHT22;5626;44.730;10.276;2022-08-01T14:02:07;38.20;42.40
11144;DHT22;5626;44.730;10.276;2022-08-01T14:04:36;38.20;41.80
11144;DHT22;5626;44.730;10.276;2022-08-01T14:07:06;38.20;41.40
11144;DHT22;5626;44.730;10.276;2022-08-01T14:09:38;38.20;40.50
11144;DHT22;5626;44.730;10.276;2022-08-01T14:12:08;38.20;41.30
11144;DHT22;5626;44.730;10.276;2022-08-01T14:14:40;38.20;41.70
11144;DHT22;5626;44.730;10.276;2022-08-01T14:17:10;38.30;39.60
11144;DHT22;5626;44.730;10.276;2022-08-01T14:19:39;38.20;40.10
11144;DHT22;5626;44.730;10.276;2022-08-01T14:22:13;38.30;42.80
11144;DHT22;5626;44.730;10.276;2022-08-01T14:24:42;38.30;41.20
11144;DHT22;5626;44.730;10.276;2022-08-01T14:27:12;38.30;40.50
11144;DHT22;5626;44.730;10.276;2022-08-01T14:29:43;38.40;42.50
11144;DHT22;5626;44.730;10.276;2022-08-01T14:32:14;38.40;43.50
11144;DHT22;5626;44.730;10.276;2022-08-01T14:34:44;38.40;42.00
11144;DHT22;5626;44.730;10.276;2022-08-01T14:37:14;38.30;40.80
11144;DHT22;5626;44.730;10.276;2022-08-01T14:39:43;38.30;40.50
11144;DHT22;5626;44.730;10.276;2022-08-01T14:42:13;38.30;40.80
11144;DHT22;5626;44.730;10.276;2022-08-01T14:44:44;38.30;40.00
11144;DHT22;5626;44.730;10.276;2022-08-01T14:47:14;38.30;40.50
11144;DHT22;5626;44.730;10.276;2022-08-01T14:49:43;38.30;43.30
11144;DHT22;5626;44.730;10.276;2022-08-01T14:52:13;38.30;42.80
11144;DHT22;5626;44.730;10.276;2022-08-01T14:54:43;38.30;41.80
11144;DHT22;5626;44.730;10.276;2022-08-01T14:57:13;38.20;41.10
11144;DHT22;5626;44.730;10.276;2022-08-01T14:59:47;38.30;42.80
11144;DHT22;5626;44.730;10.276;2022-08-01T15:02:17;38.30;42.20
11144;DHT22;5626;44.730;10.276;2022-08-01T15:04:47;38.30;41.70
11144;DHT22;5626;44.730;10.276;2022-08-01T15:07:18;38.30;42.30
11144;DHT22;5626;44.730;10.276;2022-08-01T15:09:48;38.30;41.70
11144;DHT22;5626;44.730;10.276;2022-08-01T15:12:18;38.30;41.10
11144;DHT22;5626;44.730;10.276;2022-08-01T15:14:49;38.20;41.80
11144;DHT22;5626;44.730;10.276;2022-08-01T15:17:19;38.20;41.60
11144;DHT22;5626;44.730;10.276;2022-08-01T15:19:51;38.10;40.80
11144;DHT22;5626;44.730;10.276;2022-08-01T15:22:22;38.10;40.30
11144;DHT22;5626;44.730;10.276;2022-08-01T15:24:53;38.20;41.10
11144;DHT22;5626;44.730;10.276;2022-08-01T15:27:26;38.20;42.30
11144;DHT22;5626;44.730;10.276;2022-08-01T15:29:58;38.20;41.90
11144;DHT22;5626;44.730;10.276;2022-08-01T15:32:28;38.20;42.90
11144;DHT22;5626;44.730;10.276;2022-08-01T15:34:57;38.10;42.30
11144;DHT22;5626;44.730;10.276;2022-08-01T15:37:28;38.10;42.30
11144;DHT22;5626;44.730;10.276;2022-08-01T15:39:57;38.00;42.10
11144;DHT22;5626;44.730;10.276;2022-08-01T15:42:27;38.00;41.90
11144;DHT22;5626;44.730;10.276;2022-08-01T15:44:58;38.00;41.70
11144;DHT22;5626;44.730;10.276;2022-08-01T15:47:29;37.90;41.50
11144;DHT22;5626;44.730;10.276;2022-08-01T15:49:58;37.90;41.80
11144;DHT22;5626;44.730;10.276;2022-08-01T15:52:30;37.80;43.10
11144;DHT22;5626;44.730;10.276;2022-08-01T15:54:59;37.80;43.10
11144;DHT22;5626;44.730;10.276;2022-08-01T15:57:29;37.80;43.40
11144;DHT22;5626;44.730;10.276;2022-08-01T16:00:01;37.70;43.70
11144;DHT22;5626;44.730;10.276;2022-08-01T16:02:38;37.70;43.70
11144;DHT22;5626;44.730;10.276;2022-08-01T16:05:08;37.60;44.10
11144;DHT22;5626;44.730;10.276;2022-08-01T16:07:38;37.60;41.90